Horizon Consumer — WCHF — position and weather

sailwx.info

Track history (hours):
 
Tides and Currents Weather Stations Pressure Air Temp Water Temp Dewpoint Dewpoint Depression Visibility Wind Speed Wind Dir Waves Ship Positions

Horizon Consumer

Owner: Horizon Lines LLC, RALEIGH, NC. More information available from US FCC via Universal Licensing System and Coast Guard Vessel Documentation Center.

Last reported at 2015-Apr-26 12:00 UTC. Time now 2015-Apr-26 17:23 UTC.
Position N 24°48' W 150°24'.

Type: Cargo ship. MMSI: 368600000.

Wind from 160 at 25 knots

Waves 1.5 meters (5 feet), 8 second period

Barometer 1018.1 mb
Air temperature 21.7 ° C
Visibility: greater than 10.8 NM
Dewpoint 19.0 ° C

Date/timePositionNaut miles runAvg speedWind from/ knotsBaromVisibWave heightAir tempDewpointWater temp
2015-Apr-26 12:00N 24°48' W 150°24'11919.9 160 / 251018.110.8 1.521.719.0
2015-Apr-26 06:00N 25°48' W 148°30'12320.5 100 / 251020.810.8 2.021.117.620.6
2015-Apr-26 00:00N 26°48' W 146°30'26121.7 140 / 251022.110.8 1.021.118.4
2015-Apr-25 12:00N 28°54' W 142°12'38021.1 070 / 61025.310.8 0.519.4 7.5
2015-Apr-24 18:00N 32°00' W 135°48'24020.0 360 / 121027.110.8 1.516.7 9.916.7
2015-Apr-24 06:00N 33°54' W 131°36'24820.6 310 / 141025.710.8 2.515.611.316.1
2015-Apr-23 18:00N 35°54' W 127°12'20219.0 340 / 241021.010.8 4.013.3 9.013.3
2015-Apr-23 07:22N 37°27' W 123°29'1518.5
2015-Apr-23 06:33N 37°32' W 123°11'1818.5
2015-Apr-23 05:33N 37°41' W 122°51'1514.6
2015-Apr-23 04:34N 37°47' W 122°34'1111.3
2015-Apr-23 03:33N 37°49' W 122°20'1 1.0
2015-Apr-23 02:33N 37°49' W 122°19'0 0.0
2015-Apr-23 01:33N 37°49' W 122°19'0 0.0
2015-Apr-23 00:33N 37°49' W 122°19'0 0.0
2015-Apr-22 23:33N 37°49' W 122°19'0 0.0
2015-Apr-22 22:33N 37°49' W 122°19'0 0.0
2015-Apr-22 21:33N 37°49' W 122°19'0 0.0
2015-Apr-22 20:33N 37°49' W 122°19'0 0.0
2015-Apr-22 19:33N 37°49' W 122°19'0 0.0
2015-Apr-22 18:33N 37°49' W 122°19'0 0.0
2015-Apr-22 17:33N 37°49' W 122°19'0 0.0
2015-Apr-22 16:33N 37°49' W 122°19'0 0.0
2015-Apr-22 15:33N 37°49' W 122°19'0 0.0
2015-Apr-22 14:33N 37°49' W 122°19'0 0.0
2015-Apr-22 13:33N 37°49' W 122°19'0 0.0
2015-Apr-22 12:33N 37°49' W 122°19'0 0.0
2015-Apr-22 11:33N 37°49' W 122°19'0 0.0
2015-Apr-22 10:33N 37°49' W 122°19'0 0.0
2015-Apr-22 09:33N 37°49' W 122°19'0 0.0
2015-Apr-22 08:33N 37°49' W 122°19'0 0.0
2015-Apr-22 07:33N 37°49' W 122°19'0 0.0
2015-Apr-22 06:33N 37°49' W 122°19'0 0.0
2015-Apr-22 05:33N 37°49' W 122°19'0 0.0
2015-Apr-22 04:33N 37°49' W 122°19'0 0.0
2015-Apr-22 03:33N 37°49' W 122°19'0 0.0
2015-Apr-22 02:33N 37°49' W 122°19'0 0.0
2015-Apr-22 01:32N 37°49' W 122°19'1 0.8
2015-Apr-22 00:33N 37°49' W 122°20'9 9.1
2015-Apr-21 23:33N 37°48' W 122°31'1312.6
2015-Apr-21 22:33N 37°47' W 122°47'1313.4
2015-Apr-21 21:33N 37°53' W 123°02'1313.1
2015-Apr-21 20:33N 38°01' W 123°15'1414.0
2015-Apr-21 19:34N 38°12' W 123°27'1716.9
2015-Apr-21 18:33N 38°25' W 123°40'813.6
2015-Apr-21 18:00N 38°30' W 123°48'24817.9 330 / 221013.0 5.4 3.011.7 8.312.2
2015-Apr-21 04:05N 42°30' W 125°11'4819.1
2015-Apr-21 01:33N 43°19' W 125°15'2020.1
2015-Apr-21 00:33N 43°39' W 125°17'2019.7
2015-Apr-20 23:33N 43°58' W 125°19'1919.5
2015-Apr-20 22:33N 44°18' W 125°21'1919.3
2015-Apr-20 21:33N 44°37' W 125°21'1919.4
2015-Apr-20 20:33N 44°56' W 125°21'1919.3
2015-Apr-20 19:33N 45°16' W 125°21'1919.4
2015-Apr-20 18:33N 45°35' W 125°21'2019.6
2015-Apr-20 17:33N 45°55' W 125°21'2120.6
2015-Apr-20 16:33N 46°15' W 125°22'2120.7
2015-Apr-20 15:33N 46°36' W 125°22'2120.8
2015-Apr-20 14:33N 46°57' W 125°22'2120.9
2015-Apr-20 13:33N 47°18' W 125°23'2120.9
2015-Apr-20 12:33N 47°39' W 125°23'2120.7
2015-Apr-20 11:33N 47°59' W 125°20'2020.2
2015-Apr-20 10:33N 48°19' W 125°11'1817.7
2015-Apr-20 09:34N 48°30' W 124°51'2019.7
2015-Apr-20 08:33N 48°25' W 124°22'2020.4
2015-Apr-20 07:33N 48°17' W 123°54'2120.6
2015-Apr-20 06:33N 48°11' W 123°25'1413.7
2015-Apr-20 05:31N 48°13' W 123°03'1919.6
2015-Apr-20 04:33N 48°04' W 122°38'2020.4
2015-Apr-20 03:33N 47°45' W 122°26'1716.9
2015-Apr-20 02:33N 47°28' W 122°24'1110.9
2015-Apr-20 01:33N 47°18' W 122°27'2 2.3
2015-Apr-20 00:31N 47°16' W 122°25'0 0.0
2015-Apr-19 23:28N 47°16' W 122°25'0 0.0
2015-Apr-19 22:31N 47°16' W 122°25'0 0.0
2015-Apr-19 21:31N 47°16' W 122°25'0 0.0
2015-Apr-19 20:31N 47°16' W 122°25'0 0.0
2015-Apr-19 19:31N 47°16' W 122°25'0 0.0
2015-Apr-19 18:31N 47°16' W 122°25'0 0.0
2015-Apr-19 17:31N 47°16' W 122°25'0 0.0
2015-Apr-19 16:31N 47°16' W 122°25'0 0.0
2015-Apr-19 15:28N 47°16' W 122°25'0 0.0
2015-Apr-19 14:31N 47°16' W 122°25'0 0.0
2015-Apr-19 13:33N 47°16' W 122°25'1 0.7
2015-Apr-19 12:33N 47°17' W 122°25'9 9.3
2015-Apr-19 11:34N 47°26' W 122°24'1918.7
2015-Apr-19 10:33N 47°45' W 122°27'2120.5
2015-Apr-19 09:33N 48°04' W 122°39'2019.9
2015-Apr-19 08:33N 48°12' W 123°06'1616.2
2015-Apr-19 07:33N 48°13' W 123°31'1818.4
2015-Apr-19 06:34N 48°14' W 123°58'1918.9
2015-Apr-19 05:33N 48°22' W 124°24'1818.1
2015-Apr-19 04:33N 48°28' W 124°49'1918.9
2015-Apr-19 03:32N 48°28' W 125°18'1818.9
2015-Apr-19 02:34N 48°18' W 125°42'2519.4
2015-Apr-19 01:16N 48°03' W 126°13'3919.5
2015-Apr-18 23:16N 47°41' W 126°60'1419.3
2015-Apr-18 22:33N 47°32' W 127°16'5819.1
2015-Apr-18 19:30N 46°54' W 128°21'25719.0
2015-Apr-18 06:00N 44°18' W 133°12'69519.3 030 / 101033.210.8 1.011.1 5.011.7
2015-Apr-16 18:00N 36°06' W 143°54'   1027.8 5.4 0.515.613.517.2
Track history (hours):
 
Tides and Currents Weather Stations Pressure Air Temp Water Temp Dewpoint Dewpoint Depression Visibility Wind Speed Wind Dir Waves Ship Positions

Horizon Consumer

Owner: Horizon Lines LLC, RALEIGH, NC. More information available from US FCC via Universal Licensing System and Coast Guard Vessel Documentation Center.

Last reported at 2015-Apr-26 12:00 UTC. Time now 2015-Apr-26 17:23 UTC.
Position N 24°48' W 150°24'.

Type: Cargo ship. MMSI: 368600000.

Wind from 160 at 25 knots

Waves 1.5 meters (5 feet), 8 second period

Barometer 1018.1 mb
Air temperature 21.7 ° C
Visibility: greater than 10.8 NM
Dewpoint 19.0 ° C

Date/timePositionNaut miles runAvg speedWind from/ knotsBaromVisibWave heightAir tempDewpointWater temp
2015-Apr-26 12:00N 24°48' W 150°24'11919.9 160 / 251018.110.8 1.521.719.0
2015-Apr-26 06:00N 25°48' W 148°30'12320.5 100 / 251020.810.8 2.021.117.620.6
2015-Apr-26 00:00N 26°48' W 146°30'26121.7 140 / 251022.110.8 1.021.118.4
2015-Apr-25 12:00N 28°54' W 142°12'38021.1 070 / 61025.310.8 0.519.4 7.5
2015-Apr-24 18:00N 32°00' W 135°48'24020.0 360 / 121027.110.8 1.516.7 9.916.7
2015-Apr-24 06:00N 33°54' W 131°36'24820.6 310 / 141025.710.8 2.515.611.316.1
2015-Apr-23 18:00N 35°54' W 127°12'20219.0 340 / 241021.010.8 4.013.3 9.013.3
2015-Apr-23 07:22N 37°27' W 123°29'1518.5
2015-Apr-23 06:33N 37°32' W 123°11'1818.5
2015-Apr-23 05:33N 37°41' W 122°51'1514.6
2015-Apr-23 04:34N 37°47' W 122°34'1111.3
2015-Apr-23 03:33N 37°49' W 122°20'1 1.0
2015-Apr-23 02:33N 37°49' W 122°19'0 0.0
2015-Apr-23 01:33N 37°49' W 122°19'0 0.0
2015-Apr-23 00:33N 37°49' W 122°19'0 0.0
2015-Apr-22 23:33N 37°49' W 122°19'0 0.0
2015-Apr-22 22:33N 37°49' W 122°19'0 0.0
2015-Apr-22 21:33N 37°49' W 122°19'0 0.0
2015-Apr-22 20:33N 37°49' W 122°19'0 0.0
2015-Apr-22 19:33N 37°49' W 122°19'0 0.0
2015-Apr-22 18:33N 37°49' W 122°19'0 0.0
2015-Apr-22 17:33N 37°49' W 122°19'0 0.0
2015-Apr-22 16:33N 37°49' W 122°19'0 0.0
2015-Apr-22 15:33N 37°49' W 122°19'0 0.0
2015-Apr-22 14:33N 37°49' W 122°19'0 0.0
2015-Apr-22 13:33N 37°49' W 122°19'0 0.0
2015-Apr-22 12:33N 37°49' W 122°19'0 0.0
2015-Apr-22 11:33N 37°49' W 122°19'0 0.0
2015-Apr-22 10:33N 37°49' W 122°19'0 0.0
2015-Apr-22 09:33N 37°49' W 122°19'0 0.0
2015-Apr-22 08:33N 37°49' W 122°19'0 0.0
2015-Apr-22 07:33N 37°49' W 122°19'0 0.0
2015-Apr-22 06:33N 37°49' W 122°19'0 0.0
2015-Apr-22 05:33N 37°49' W 122°19'0 0.0
2015-Apr-22 04:33N 37°49' W 122°19'0 0.0
2015-Apr-22 03:33N 37°49' W 122°19'0 0.0
2015-Apr-22 02:33N 37°49' W 122°19'0 0.0
2015-Apr-22 01:32N 37°49' W 122°19'1 0.8
2015-Apr-22 00:33N 37°49' W 122°20'9 9.1
2015-Apr-21 23:33N 37°48' W 122°31'1312.6
2015-Apr-21 22:33N 37°47' W 122°47'1313.4
2015-Apr-21 21:33N 37°53' W 123°02'1313.1
2015-Apr-21 20:33N 38°01' W 123°15'1414.0
2015-Apr-21 19:34N 38°12' W 123°27'1716.9
2015-Apr-21 18:33N 38°25' W 123°40'813.6
2015-Apr-21 18:00N 38°30' W 123°48'24817.9 330 / 221013.0 5.4 3.011.7 8.312.2
2015-Apr-21 04:05N 42°30' W 125°11'4819.1
2015-Apr-21 01:33N 43°19' W 125°15'2020.1
2015-Apr-21 00:33N 43°39' W 125°17'2019.7
2015-Apr-20 23:33N 43°58' W 125°19'1919.5
2015-Apr-20 22:33N 44°18' W 125°21'1919.3
2015-Apr-20 21:33N 44°37' W 125°21'1919.4
2015-Apr-20 20:33N 44°56' W 125°21'1919.3
2015-Apr-20 19:33N 45°16' W 125°21'1919.4
2015-Apr-20 18:33N 45°35' W 125°21'2019.6
2015-Apr-20 17:33N 45°55' W 125°21'2120.6
2015-Apr-20 16:33N 46°15' W 125°22'2120.7
2015-Apr-20 15:33N 46°36' W 125°22'2120.8
2015-Apr-20 14:33N 46°57' W 125°22'2120.9
2015-Apr-20 13:33N 47°18' W 125°23'2120.9
2015-Apr-20 12:33N 47°39' W 125°23'2120.7
2015-Apr-20 11:33N 47°59' W 125°20'2020.2
2015-Apr-20 10:33N 48°19' W 125°11'1817.7
2015-Apr-20 09:34N 48°30' W 124°51'2019.7
2015-Apr-20 08:33N 48°25' W 124°22'2020.4
2015-Apr-20 07:33N 48°17' W 123°54'2120.6
2015-Apr-20 06:33N 48°11' W 123°25'1413.7
2015-Apr-20 05:31N 48°13' W 123°03'1919.6
2015-Apr-20 04:33N 48°04' W 122°38'2020.4
2015-Apr-20 03:33N 47°45' W 122°26'1716.9
2015-Apr-20 02:33N 47°28' W 122°24'1110.9
2015-Apr-20 01:33N 47°18' W 122°27'2 2.3
2015-Apr-20 00:31N 47°16' W 122°25'0 0.0
2015-Apr-19 23:28N 47°16' W 122°25'0 0.0
2015-Apr-19 22:31N 47°16' W 122°25'0 0.0
2015-Apr-19 21:31N 47°16' W 122°25'0 0.0
2015-Apr-19 20:31N 47°16' W 122°25'0 0.0
2015-Apr-19 19:31N 47°16' W 122°25'0 0.0
2015-Apr-19 18:31N 47°16' W 122°25'0 0.0
2015-Apr-19 17:31N 47°16' W 122°25'0 0.0
2015-Apr-19 16:31N 47°16' W 122°25'0 0.0
2015-Apr-19 15:28N 47°16' W 122°25'0 0.0
2015-Apr-19 14:31N 47°16' W 122°25'0 0.0
2015-Apr-19 13:33N 47°16' W 122°25'1 0.7
2015-Apr-19 12:33N 47°17' W 122°25'9 9.3
2015-Apr-19 11:34N 47°26' W 122°24'1918.7
2015-Apr-19 10:33N 47°45' W 122°27'2120.5
2015-Apr-19 09:33N 48°04' W 122°39'2019.9
2015-Apr-19 08:33N 48°12' W 123°06'1616.2
2015-Apr-19 07:33N 48°13' W 123°31'1818.4
2015-Apr-19 06:34N 48°14' W 123°58'1918.9
2015-Apr-19 05:33N 48°22' W 124°24'1818.1
2015-Apr-19 04:33N 48°28' W 124°49'1918.9
2015-Apr-19 03:32N 48°28' W 125°18'1818.9
2015-Apr-19 02:34N 48°18' W 125°42'2519.4
2015-Apr-19 01:16N 48°03' W 126°13'3919.5
2015-Apr-18 23:16N 47°41' W 126°60'1419.3
2015-Apr-18 22:33N 47°32' W 127°16'5819.1
2015-Apr-18 19:30N 46°54' W 128°21'25719.0
2015-Apr-18 06:00N 44°18' W 133°12'69519.3 030 / 101033.210.8 1.011.1 5.011.7
2015-Apr-16 18:00N 36°06' W 143°54'   1027.8 5.4 0.515.613.517.2

Dump ship's entire track history